createdAt,value
2024-01-30T00:00:39.759Z,30.48
2024-01-30T00:03:06.925Z,26.33
2024-01-30T00:05:33.869Z,24.63
2024-01-30T00:08:01.380Z,24.83
2024-01-30T00:10:28.438Z,26.38
2024-01-30T00:12:55.691Z,24.02
2024-01-30T00:15:22.776Z,24.98
2024-01-30T00:20:17.348Z,21.35
2024-01-30T00:22:44.458Z,27.50
2024-01-30T00:27:38.483Z,22.75
2024-01-30T00:30:06.148Z,26.42
2024-01-30T00:32:33.095Z,22.55
2024-01-30T00:35:00.389Z,21.45
2024-01-30T00:37:27.712Z,25.05
2024-01-30T00:39:55.244Z,23.05
2024-01-30T00:42:25.036Z,26.10
2024-01-30T00:44:52.121Z,23.45
2024-01-30T00:49:46.053Z,28.42
2024-01-30T00:52:13.515Z,21.60
2024-01-30T00:54:40.511Z,28.05
2024-01-30T00:57:07.561Z,20.73
2024-01-30T00:59:34.580Z,20.88
2024-01-30T01:02:01.763Z,25.48
2024-01-30T01:04:29.315Z,25.05
2024-01-30T01:06:56.468Z,21.60
2024-01-30T01:09:23.768Z,20.88
2024-01-30T01:11:50.785Z,24.98
2024-01-30T01:14:17.757Z,18.08
2024-01-30T01:16:44.838Z,23.75
2024-01-30T01:21:38.912Z,27.35
2024-01-30T01:24:06.754Z,29.33
2024-01-30T01:26:34.113Z,32.30
2024-01-30T01:29:01.005Z,24.67
2024-01-30T01:31:30.934Z,26.05
2024-01-30T01:33:58.239Z,25.55
2024-01-30T01:38:51.920Z,25.92
2024-01-30T01:43:45.744Z,25.27
2024-01-30T01:46:12.800Z,21.55
2024-01-30T01:51:08.618Z,23.33
2024-01-30T01:56:02.481Z,21.63
2024-01-30T01:58:30.565Z,21.13
2024-01-30T02:00:59.305Z,25.05
2024-01-30T02:03:26.232Z,23.00
2024-01-30T02:05:53.244Z,26.38
2024-01-30T02:10:47.312Z,23.15
2024-01-30T02:13:14.223Z,28.08
2024-01-30T02:15:41.091Z,22.65
2024-01-30T02:18:08.053Z,27.17
2024-01-30T02:20:38.576Z,23.83
2024-01-30T02:23:06.185Z,23.48
2024-01-30T02:25:47.730Z,23.63
2024-01-30T02:28:15.216Z,22.73
2024-01-30T02:30:44.037Z,24.67
2024-01-30T02:33:10.863Z,25.48
2024-01-30T02:35:37.738Z,25.05
2024-01-30T02:38:04.783Z,28.25
2024-01-30T02:40:31.890Z,20.80
2024-01-30T02:45:30.233Z,19.95
2024-01-30T02:50:24.116Z,21.65
2024-01-30T02:52:51.137Z,21.67
2024-01-30T02:55:20.875Z,20.92
2024-01-30T02:57:47.965Z,21.70
2024-01-30T03:00:15.343Z,21.33
2024-01-30T03:02:42.288Z,23.40
2024-01-30T03:05:09.712Z,18.27
2024-01-30T03:07:36.551Z,18.65
2024-01-30T03:10:03.729Z,22.98
2024-01-30T03:14:57.354Z,19.08
2024-01-30T03:17:25.472Z,21.70
2024-01-30T03:19:52.560Z,21.90
2024-01-30T03:22:19.612Z,20.98
2024-01-30T03:24:46.599Z,25.70
2024-01-30T03:27:13.328Z,19.65
2024-01-30T03:29:40.349Z,22.30
2024-01-30T03:34:34.087Z,21.90
2024-01-30T03:39:27.800Z,18.70
2024-01-30T03:41:54.643Z,21.55
2024-01-30T03:44:21.475Z,21.83
2024-01-30T03:46:48.271Z,20.55
2024-01-30T03:49:15.239Z,24.08
2024-01-30T03:51:42.109Z,22.40
2024-01-30T03:54:09.294Z,17.67
2024-01-30T03:59:03.924Z,20.80
2024-01-30T04:01:30.898Z,24.30
2024-01-30T04:03:57.884Z,21.75
2024-01-30T04:06:24.943Z,23.77
2024-01-30T04:11:20.819Z,21.02
2024-01-30T04:13:49.499Z,20.42
2024-01-30T04:16:23.811Z,23.40
2024-01-30T04:18:51.166Z,20.00
2024-01-30T04:23:44.777Z,18.08
2024-01-30T04:26:12.049Z,20.55
2024-01-30T04:28:38.884Z,20.88
2024-01-30T04:31:05.756Z,24.58
2024-01-30T04:33:32.622Z,23.25
2024-01-30T04:35:59.487Z,23.90
2024-01-30T04:38:26.438Z,20.38
2024-01-30T04:40:53.266Z,19.75
2024-01-30T04:43:20.480Z,23.88
2024-01-30T04:45:47.468Z,20.98
2024-01-30T04:48:14.761Z,23.95
2024-01-30T04:50:41.624Z,21.15
2024-01-30T04:53:09.012Z,22.35
2024-01-30T04:55:37.571Z,21.77
2024-01-30T04:58:04.585Z,22.75
2024-01-30T05:00:31.475Z,23.17
2024-01-30T05:02:58.201Z,21.63
2024-01-30T05:05:25.119Z,19.45
2024-01-30T05:07:52.086Z,20.95
2024-01-30T05:10:19.290Z,21.08
2024-01-30T05:12:46.210Z,20.60
2024-01-30T05:15:13.026Z,19.17
2024-01-30T05:17:39.841Z,19.98
2024-01-30T05:20:07.469Z,21.48
2024-01-30T05:22:34.345Z,20.55
2024-01-30T05:25:01.374Z,19.30
2024-01-30T05:29:55.123Z,21.75
2024-01-30T05:32:21.994Z,24.30
2024-01-30T05:34:48.861Z,20.52
2024-01-30T05:37:18.102Z,20.42
2024-01-30T05:39:45.327Z,23.17
2024-01-30T05:44:38.955Z,21.92
2024-01-30T05:47:07.294Z,18.13
2024-01-30T05:49:34.419Z,21.00
2024-01-30T05:52:15.107Z,19.48
2024-01-30T05:54:41.949Z,17.48
2024-01-30T05:57:08.749Z,17.27
2024-01-30T05:59:39.810Z,17.02
2024-01-30T06:02:08.888Z,16.13
2024-01-30T06:04:35.994Z,20.55
2024-01-30T06:09:30.353Z,19.53
2024-01-30T06:11:57.277Z,17.35
2024-01-30T06:14:24.631Z,20.52
2024-01-30T06:16:51.587Z,22.92
2024-01-30T06:19:18.561Z,24.13
2024-01-30T06:21:46.618Z,20.35
2024-01-30T06:24:13.600Z,22.15
2024-01-30T06:26:40.940Z,16.17
2024-01-30T06:29:08.634Z,19.38
2024-01-30T06:31:44.228Z,19.10
2024-01-30T06:34:12.363Z,18.20
2024-01-30T06:36:39.824Z,19.58
2024-01-30T06:39:06.829Z,19.40
2024-01-30T06:41:33.667Z,21.30
2024-01-30T06:44:00.715Z,20.15
2024-01-30T06:48:55.897Z,16.15
2024-01-30T06:51:22.813Z,19.95
2024-01-30T06:53:49.756Z,21.10
2024-01-30T06:56:21.892Z,19.38
2024-01-30T06:58:49.798Z,17.98
2024-01-30T07:01:17.259Z,18.38
2024-01-30T07:03:44.583Z,20.35
2024-01-30T07:06:14.424Z,22.40
2024-01-30T07:08:41.286Z,19.65
2024-01-30T07:11:08.683Z,21.30
2024-01-30T07:13:36.117Z,24.00
2024-01-30T07:16:03.178Z,23.48
2024-01-30T07:18:30.143Z,17.80
2024-01-30T07:20:57.104Z,22.73
2024-01-30T07:23:23.925Z,20.85
2024-01-30T07:25:51.572Z,17.58
2024-01-30T07:28:18.742Z,19.63
2024-01-30T07:30:45.755Z,19.13
2024-01-30T07:35:39.594Z,19.50
2024-01-30T07:38:06.488Z,19.17
2024-01-30T07:40:34.583Z,19.05
2024-01-30T07:43:02.195Z,19.83
2024-01-30T07:45:33.633Z,18.58
2024-01-30T07:48:03.412Z,18.60
2024-01-30T07:50:30.396Z,17.83
2024-01-30T07:52:58.213Z,21.98
2024-01-30T07:55:28.697Z,25.17
2024-01-30T07:57:56.547Z,24.30
2024-01-30T08:00:25.752Z,20.55
2024-01-30T08:02:55.648Z,18.63
2024-01-30T08:05:25.964Z,19.40
2024-01-30T08:07:53.087Z,16.55
2024-01-30T08:10:20.465Z,18.10
2024-01-30T08:12:48.182Z,16.92
2024-01-30T08:15:15.259Z,15.85
2024-01-30T08:17:42.422Z,15.23
2024-01-30T08:20:11.836Z,14.90
2024-01-30T08:22:42.415Z,17.83
2024-01-30T08:25:10.997Z,12.68
2024-01-30T08:27:39.470Z,15.55
2024-01-30T08:30:08.153Z,18.55
2024-01-30T08:32:36.297Z,15.90
2024-01-30T08:35:06.619Z,16.55
2024-01-30T08:37:33.666Z,15.20
2024-01-30T08:40:01.334Z,14.80
2024-01-30T08:42:28.546Z,14.98
2024-01-30T08:47:22.632Z,18.33
2024-01-30T08:52:16.660Z,14.57
2024-01-30T08:54:43.582Z,14.25
2024-01-30T08:57:10.485Z,16.50
2024-01-30T08:59:37.344Z,13.60
2024-01-30T09:02:12.045Z,16.15
2024-01-30T09:04:40.613Z,15.45
2024-01-30T09:07:11.063Z,16.65
2024-01-30T09:09:42.213Z,15.95
2024-01-30T09:12:12.531Z,13.60
2024-01-30T09:14:40.599Z,16.70
2024-01-30T09:17:07.443Z,14.85
2024-01-30T09:19:34.773Z,20.92
2024-01-30T09:22:01.869Z,17.90
2024-01-30T09:24:29.337Z,14.30
2024-01-30T09:26:57.242Z,17.50
2024-01-30T09:29:29.104Z,14.82
2024-01-30T09:31:59.047Z,16.83
2024-01-30T09:34:27.242Z,16.83
2024-01-30T09:36:54.178Z,14.98
2024-01-30T09:39:21.403Z,17.35
2024-01-30T09:44:34.465Z,22.33
2024-01-30T09:47:04.934Z,19.42
2024-01-30T09:49:34.284Z,17.95
2024-01-30T09:52:01.842Z,18.23
2024-01-30T09:54:35.437Z,17.85
2024-01-30T09:57:03.881Z,21.25
2024-01-30T09:59:31.011Z,18.88
2024-01-30T10:04:25.719Z,24.95
2024-01-30T10:06:52.931Z,17.13
2024-01-30T10:09:20.377Z,21.10
2024-01-30T10:11:47.404Z,20.38
2024-01-30T10:14:14.358Z,19.38
2024-01-30T10:16:41.327Z,18.10
2024-01-30T10:19:08.461Z,18.15
2024-01-30T10:21:36.251Z,18.40
2024-01-30T10:24:03.138Z,17.48
2024-01-30T10:26:30.446Z,19.67
2024-01-30T10:28:57.323Z,16.45
2024-01-30T10:31:25.277Z,16.23
2024-01-30T10:33:54.522Z,17.83
2024-01-30T10:36:29.592Z,16.92
2024-01-30T10:39:00.858Z,19.52
2024-01-30T10:41:29.094Z,15.88
2024-01-30T10:44:11.564Z,18.58
2024-01-30T10:46:46.065Z,17.90
2024-01-30T10:49:14.173Z,17.00
2024-01-30T10:51:41.922Z,16.65
2024-01-30T10:54:10.444Z,13.93
2024-01-30T10:56:38.035Z,16.60
2024-01-30T10:59:05.279Z,15.80
2024-01-30T11:01:32.727Z,21.83
2024-01-30T11:04:00.127Z,18.30
2024-01-30T11:06:27.293Z,15.73
2024-01-30T11:09:10.974Z,16.60
2024-01-30T11:12:02.974Z,15.88
2024-01-30T11:14:34.115Z,17.50
2024-01-30T11:17:01.457Z,14.90
2024-01-30T11:19:31.679Z,16.48
2024-01-30T11:21:58.927Z,13.18
2024-01-30T11:24:26.292Z,16.85
2024-01-30T11:27:00.599Z,13.95
2024-01-30T11:29:30.576Z,15.75
2024-01-30T11:32:00.115Z,13.30
2024-01-30T11:34:27.494Z,15.95
2024-01-30T11:37:01.410Z,14.02
2024-01-30T11:39:28.675Z,12.43
2024-01-30T11:41:56.397Z,15.68
2024-01-30T11:44:24.174Z,14.43
2024-01-30T11:46:52.313Z,16.30
2024-01-30T11:49:20.163Z,16.17
2024-01-30T11:51:49.642Z,15.18
2024-01-30T11:54:19.824Z,15.40
2024-01-30T11:56:46.757Z,15.63
2024-01-30T12:01:40.548Z,17.48
2024-01-30T12:04:10.398Z,16.35
2024-01-30T12:06:37.987Z,15.40
2024-01-30T12:09:05.400Z,17.45
2024-01-30T12:11:32.637Z,18.70
2024-01-30T12:13:59.824Z,18.95
2024-01-30T12:16:26.854Z,16.45
2024-01-30T12:19:02.522Z,17.77
2024-01-30T12:21:30.406Z,18.15
2024-01-30T12:24:01.250Z,17.02
2024-01-30T12:26:28.384Z,15.95
2024-01-30T12:28:56.568Z,20.77
2024-01-30T12:31:28.617Z,14.30
2024-01-30T12:33:59.954Z,16.92
2024-01-30T12:36:27.268Z,14.88
2024-01-30T12:38:54.182Z,18.25
2024-01-30T12:41:21.476Z,17.67
2024-01-30T12:43:49.033Z,15.70
2024-01-30T12:46:18.674Z,17.27
2024-01-30T12:48:46.479Z,17.55
2024-01-30T12:51:13.377Z,16.80
2024-01-30T12:56:07.009Z,14.38
2024-01-30T12:58:33.860Z,14.43
2024-01-30T13:03:28.244Z,15.00
2024-01-30T13:05:55.880Z,14.18
2024-01-30T13:08:23.009Z,16.40
2024-01-30T13:10:50.393Z,14.85
2024-01-30T13:13:20.520Z,14.93
2024-01-30T13:15:49.188Z,16.50
2024-01-30T13:18:16.398Z,14.57
2024-01-30T13:20:43.506Z,15.02
2024-01-30T13:23:10.595Z,13.93
2024-01-30T13:25:37.469Z,15.63
2024-01-30T13:28:04.889Z,18.00
2024-01-30T13:30:31.862Z,15.98
2024-01-30T13:37:53.477Z,15.25
2024-01-30T13:42:47.104Z,21.48
2024-01-30T13:47:40.900Z,19.70
2024-01-30T13:50:08.792Z,19.95
2024-01-30T13:52:41.661Z,20.95
2024-01-30T13:55:12.187Z,14.95
2024-01-30T13:57:39.426Z,18.02
2024-01-30T14:00:10.106Z,19.02
2024-01-30T14:02:40.124Z,18.17
2024-01-30T14:05:07.328Z,23.98
2024-01-30T14:07:34.672Z,18.75
2024-01-30T14:10:01.704Z,17.83
2024-01-30T14:14:55.274Z,17.15
2024-01-30T14:17:22.359Z,18.17
2024-01-30T14:19:49.386Z,18.63
2024-01-30T14:22:16.517Z,21.40
2024-01-30T14:24:43.478Z,15.77
2024-01-30T14:27:11.738Z,16.20
2024-01-30T14:29:39.080Z,13.98
2024-01-30T14:32:06.476Z,15.75
2024-01-30T14:34:34.478Z,18.13
2024-01-30T14:39:28.234Z,14.13
2024-01-30T14:41:55.207Z,15.38
2024-01-30T14:46:48.952Z,12.57
2024-01-30T14:49:16.665Z,11.85
2024-01-30T14:51:43.789Z,13.05
2024-01-30T14:54:10.672Z,13.23
2024-01-30T14:59:04.265Z,17.35
2024-01-30T15:03:58.128Z,17.67
2024-01-30T15:06:26.043Z,17.27
2024-01-30T15:08:54.172Z,17.60
2024-01-30T15:11:21.502Z,19.23
2024-01-30T15:13:48.361Z,16.02
2024-01-30T15:18:42.275Z,18.85
2024-01-30T15:23:36.334Z,12.57
2024-01-30T15:26:03.323Z,15.00
2024-01-30T15:31:07.542Z,14.13
2024-01-30T15:33:34.771Z,11.55
2024-01-30T15:36:02.516Z,14.80
2024-01-30T15:38:30.301Z,14.90
2024-01-30T15:40:57.400Z,13.35
2024-01-30T15:43:25.238Z,14.88
2024-01-30T15:45:52.700Z,13.70
2024-01-30T15:48:20.588Z,13.90
2024-01-30T15:50:47.469Z,16.15
2024-01-30T15:53:14.334Z,14.15
2024-01-30T15:58:08.320Z,15.57
2024-01-30T16:00:35.360Z,15.85
2024-01-30T16:05:29.106Z,18.80
2024-01-30T16:07:55.845Z,17.13
2024-01-30T16:10:22.908Z,15.32
2024-01-30T16:12:50.762Z,16.13
2024-01-30T16:15:19.189Z,19.17
2024-01-30T16:17:46.631Z,19.60
2024-01-30T16:20:15.718Z,20.42
2024-01-30T16:22:42.921Z,20.20
2024-01-30T16:25:11.209Z,21.42
2024-01-30T16:27:38.106Z,22.83
2024-01-30T16:32:32.455Z,22.58
2024-01-30T16:34:59.857Z,21.27
2024-01-30T16:37:26.844Z,28.38
2024-01-30T16:42:23.715Z,20.15
2024-01-30T16:44:50.484Z,20.13
2024-01-30T16:47:17.297Z,22.58
2024-01-30T16:49:44.176Z,21.02
2024-01-30T16:52:11.251Z,28.00
2024-01-30T16:54:38.205Z,22.98
2024-01-30T16:59:45.298Z,27.52
2024-01-30T17:02:16.260Z,34.00
2024-01-30T17:04:46.680Z,39.70
2024-01-30T17:07:16.032Z,41.75
2024-01-30T17:09:51.002Z,37.30
2024-01-30T17:12:23.691Z,29.88
2024-01-30T17:15:06.187Z,27.23
2024-01-30T17:17:49.652Z,20.98
2024-01-30T17:20:37.314Z,21.88
2024-01-30T17:23:09.624Z,21.23
2024-01-30T17:25:38.331Z,22.27
2024-01-30T17:28:05.937Z,22.48
2024-01-30T17:30:33.108Z,19.52
2024-01-30T17:33:00.811Z,25.50
2024-01-30T17:35:28.279Z,29.38
2024-01-30T17:37:55.561Z,27.40
2024-01-30T17:40:22.763Z,24.67
2024-01-30T17:42:50.193Z,24.75
2024-01-30T17:45:17.579Z,22.75
2024-01-30T17:47:45.322Z,21.45
2024-01-30T17:50:18.380Z,21.25
2024-01-30T17:52:50.121Z,28.58
2024-01-30T17:55:17.551Z,24.08
2024-01-30T17:57:49.777Z,21.20
2024-01-30T18:00:19.554Z,21.75
2024-01-30T18:02:47.228Z,21.27
2024-01-30T18:05:17.627Z,21.67
2024-01-30T18:07:45.368Z,24.40
2024-01-30T18:10:14.347Z,24.10
2024-01-30T18:12:42.897Z,24.52
2024-01-30T18:15:10.336Z,23.25
2024-01-30T18:17:37.598Z,28.30
2024-01-30T18:20:09.118Z,30.48
2024-01-30T18:22:36.735Z,31.13
2024-01-30T18:25:06.696Z,31.42
2024-01-30T18:27:34.123Z,29.88
2024-01-30T18:30:01.516Z,25.77
2024-01-30T18:32:29.006Z,27.17
2024-01-30T18:34:56.877Z,23.20
2024-01-30T18:37:24.006Z,22.80
2024-01-30T18:39:51.234Z,25.48
2024-01-30T18:42:19.524Z,23.92
2024-01-30T18:44:47.848Z,20.52
2024-01-30T18:47:14.979Z,24.02
2024-01-30T18:49:42.093Z,23.88
2024-01-30T18:52:09.836Z,23.33
2024-01-30T18:54:37.655Z,24.77
2024-01-30T18:57:05.136Z,18.48
2024-01-30T18:59:32.440Z,22.38
2024-01-30T19:01:59.400Z,19.92
2024-01-30T19:06:53.891Z,18.42
2024-01-30T19:09:23.116Z,19.85
2024-01-30T19:11:50.987Z,21.92
2024-01-30T19:14:18.044Z,20.75
2024-01-30T19:16:45.391Z,19.92
2024-01-30T19:19:12.548Z,19.02
2024-01-30T19:21:40.232Z,17.67
2024-01-30T19:24:07.913Z,19.73
2024-01-30T19:26:35.824Z,20.83
2024-01-30T19:29:03.302Z,20.33
2024-01-30T19:31:30.477Z,17.27
2024-01-30T19:33:57.898Z,17.83
2024-01-30T19:36:25.162Z,17.45
2024-01-30T19:38:52.923Z,17.17
2024-01-30T19:41:20.158Z,18.77
2024-01-30T19:43:47.545Z,21.95
2024-01-30T19:46:15.094Z,21.83
2024-01-30T19:48:42.494Z,23.92
2024-01-30T19:51:09.793Z,24.52
2024-01-30T19:53:40.725Z,23.38
2024-01-30T20:34:46.529Z,22.33
2024-01-30T20:41:41.558Z,20.90
2024-01-30T20:44:09.126Z,21.85
2024-01-30T20:46:36.407Z,19.73
2024-01-30T20:49:03.718Z,22.45
2024-01-30T20:51:31.363Z,21.63
2024-01-30T20:53:59.137Z,23.20
2024-01-30T20:56:27.137Z,20.15
2024-01-30T20:58:54.881Z,18.52
2024-01-30T21:01:22.345Z,18.80
2024-01-30T21:03:50.424Z,17.33
2024-01-30T21:06:17.749Z,21.27
2024-01-30T21:08:45.459Z,15.90
2024-01-30T21:11:13.252Z,20.52
2024-01-30T21:13:40.731Z,14.07
2024-01-30T21:16:08.284Z,18.40
2024-01-30T21:18:36.419Z,17.63
2024-01-30T21:21:03.865Z,19.35
2024-01-30T21:23:31.192Z,18.52
2024-01-30T21:25:59.432Z,20.20
2024-01-30T21:28:29.096Z,19.17
2024-01-30T21:33:23.407Z,15.95
2024-01-30T21:35:50.487Z,17.70
2024-01-30T21:38:42.320Z,17.52
2024-01-30T21:48:56.490Z,18.45
2024-01-30T21:51:23.753Z,18.00
2024-01-30T21:53:50.610Z,20.73
2024-01-30T21:56:17.486Z,20.88
2024-01-30T21:58:44.353Z,17.58
2024-01-30T22:03:40.183Z,13.95
2024-01-30T22:06:09.250Z,17.63
2024-01-30T22:08:36.176Z,19.50
2024-01-30T22:13:31.863Z,19.45
2024-01-30T22:18:26.119Z,17.65
2024-01-30T22:20:53.089Z,19.95
2024-01-30T22:25:46.954Z,19.20
2024-01-30T22:30:40.851Z,18.80
2024-01-30T22:35:37.007Z,14.27
2024-01-30T22:38:08.449Z,20.58
2024-01-30T22:40:36.054Z,19.48
2024-01-30T22:43:04.453Z,19.67
2024-01-30T22:45:31.412Z,18.17
2024-01-30T22:47:58.266Z,17.77
2024-01-30T22:50:25.137Z,20.15
2024-01-30T22:52:52.807Z,16.50
2024-01-30T22:55:19.899Z,21.83
2024-01-30T22:57:46.874Z,19.27
2024-01-30T23:02:46.175Z,19.75
2024-01-30T23:05:13.248Z,19.13
2024-01-30T23:07:42.934Z,19.85
2024-01-30T23:10:11.083Z,20.58
2024-01-30T23:12:38.417Z,20.75
2024-01-30T23:15:06.552Z,22.35
2024-01-30T23:17:34.277Z,24.27
2024-01-30T23:20:02.390Z,20.83
2024-01-30T23:22:29.367Z,24.63
2024-01-30T23:27:23.091Z,27.95
2024-01-30T23:29:50.065Z,28.13
2024-01-30T23:34:57.298Z,25.02
2024-01-30T23:37:24.315Z,24.00
2024-01-30T23:42:19.275Z,23.00
2024-01-30T23:44:46.348Z,24.15
2024-01-30T23:47:13.396Z,25.45
2024-01-30T23:49:41.155Z,28.65
2024-01-30T23:52:08.019Z,24.45
2024-01-30T23:54:34.987Z,28.67
2024-01-30T23:59:29.400Z,28.88
